Time;durP1;ratioP1;P1;durP2;ratioP2;P2;SDS_P1;SDS_P2;PMS_P1;PMS_P2;Temp;Humidity;BMP_temperature;BMP_pressure;BME280_temperature;BME280_humidity;BME280_pressure;Samples;Min_cycle;Max_cycle;Signal;HPM_P1;HPM_P2
2020/12/07 05:01:05;;;;;;;5.07;4.60;;;3.50;99.90;;;;;;5680842;23;20567;-63
2020/12/07 05:03:32;;;;;;;5.97;5.37;;;3.50;99.90;;;;;;4994883;28;20454;-62
2020/12/07 05:06:00;;;;;;;5.77;5.27;;;3.50;99.90;;;;;;4996432;28;20976;-62
2020/12/07 05:08:26;;;;;;;5.40;4.90;;;3.60;99.90;;;;;;4996422;28;20815;-63
2020/12/07 05:10:54;;;;;;;7.40;6.03;;;3.60;99.90;;;;;;4996351;28;20470;-63
2020/12/07 05:13:25;;;;;;;5.90;5.30;;;3.60;99.90;;;;;;4995778;28;20541;-64
2020/12/07 05:15:51;;;;;;;6.00;5.60;;;3.60;99.90;;;;;;4995895;28;20460;-64
2020/12/07 05:18:18;;;;;;;7.20;5.50;;;3.70;99.90;;;;;;4995509;28;20478;-63
2020/12/07 05:20:45;;;;;;;6.53;5.00;;;3.60;99.90;;;;;;4995886;28;20488;-62
2020/12/07 05:23:14;;;;;;;5.67;5.10;;;3.70;99.90;;;;;;4996134;28;20483;-64
2020/12/07 05:25:43;;;;;;;6.97;5.27;;;3.70;99.90;;;;;;4995956;28;20446;-64
2020/12/07 05:28:11;;;;;;;6.57;5.90;;;3.80;99.90;;;;;;4995799;28;20446;-64
2020/12/07 05:30:41;;;;;;;6.40;5.83;;;3.80;99.90;;;;;;4995992;28;20495;-62
2020/12/07 05:33:08;;;;;;;6.00;5.40;;;3.80;99.90;;;;;;4995799;28;20446;-63
2020/12/07 05:35:38;;;;;;;7.40;5.97;;;3.80;99.90;;;;;;4995444;28;20461;-63
2020/12/07 05:38:05;;;;;;;5.80;5.23;;;3.80;99.90;;;;;;4995307;28;20509;-63
2020/12/07 05:40:32;;;;;;;7.33;5.37;;;3.80;99.90;;;;;;4995314;28;20484;-62
2020/12/07 05:42:58;;;;;;;7.07;5.40;;;3.80;99.90;;;;;;4995448;28;20952;-63
2020/12/07 05:45:25;;;;;;;6.77;5.93;;;3.90;99.90;;;;;;4995471;28;20942;-63
2020/12/07 05:47:53;;;;;;;8.67;6.03;;;3.90;99.90;;;;;;4997116;28;20981;-63
2020/12/07 05:50:21;;;;;;;7.07;5.90;;;3.90;99.90;;;;;;4998333;28;20512;-63
2020/12/07 05:52:51;;;;;;;7.43;5.87;;;3.90;99.90;;;;;;4996378;28;20454;-63
2020/12/07 05:55:19;;;;;;;6.07;5.47;;;3.90;99.90;;;;;;4994398;28;20456;-62
2020/12/07 05:57:52;;;;;;;6.50;5.90;;;3.80;99.90;;;;;;4994339;28;20480;-63
2020/12/07 06:00:23;;;;;;;7.00;6.00;;;3.90;99.90;;;;;;4994287;28;20442;-64
2020/12/07 06:02:51;;;;;;;6.63;5.17;;;3.90;99.90;;;;;;4994516;28;20441;-63
2020/12/07 06:05:18;;;;;;;8.70;5.73;;;4.00;99.90;;;;;;4994647;28;20449;-63
2020/12/07 06:07:52;;;;;;;6.80;6.10;;;3.90;99.90;;;;;;4994364;28;20450;-63
2020/12/07 06:10:19;;;;;;;7.83;5.83;;;4.10;99.90;;;;;;4994530;28;20497;-63
2020/12/07 06:12:52;;;;;;;7.87;6.80;;;4.90;99.90;;;;;;4994387;28;20441;-63
2020/12/07 06:15:19;;;;;;;7.03;6.10;;;5.10;99.90;;;;;;4994254;28;20438;-63
2020/12/07 06:17:48;;;;;;;5.90;5.37;;;5.30;99.90;;;;;;4994748;28;20520;-63
2020/12/07 06:20:30;;;;;;;7.07;5.70;;;5.40;99.90;;;;;;4994269;28;20485;-63
2020/12/07 06:22:58;;;;;;;6.53;5.33;;;5.30;99.90;;;;;;4994247;28;20903;-62
2020/12/07 06:25:29;;;;;;;5.90;5.40;;;5.20;99.90;;;;;;4995049;28;20456;-62
2020/12/07 06:27:59;;;;;;;5.60;5.10;;;5.00;99.90;;;;;;4994370;28;20450;-63
2020/12/07 06:30:31;;;;;;;6.43;5.83;;;4.80;99.90;;;;;;4994763;28;20485;-64
2020/12/07 06:32:57;;;;;;;7.40;5.70;;;4.60;99.90;;;;;;4994787;28;20435;-64
2020/12/07 06:35:27;;;;;;;6.90;6.30;;;4.50;99.90;;;;;;4994893;28;20465;-63
2020/12/07 06:37:53;;;;;;;10.10;6.90;;;4.40;99.90;;;;;;4996719;28;20485;-63
2020/12/07 06:40:23;;;;;;;6.97;6.10;;;4.40;99.90;;;;;;4997222;28;20450;-63
2020/12/07 06:42:50;;;;;;;9.77;7.53;;;4.30;99.90;;;;;;4996405;28;20434;-64
2020/12/07 06:45:24;;;;;;;8.73;6.20;;;4.10;99.90;;;;;;4996452;28;20457;-64
2020/12/07 06:47:51;;;;;;;7.33;6.53;;;4.00;99.90;;;;;;4995340;28;20504;-64
2020/12/07 06:50:20;;;;;;;8.50;7.33;;;3.90;99.90;;;;;;4995171;28;20798;-65
2020/12/07 06:52:47;;;;;;;8.47;7.00;;;3.90;99.90;;;;;;4994250;28;20453;-64
2020/12/07 06:55:15;;;;;;;6.93;6.23;;;3.90;99.90;;;;;;4994316;28;20450;-64
2020/12/07 06:57:44;;;;;;;9.93;6.80;;;3.90;99.90;;;;;;4994024;28;20478;-64
2020/12/07 07:00:15;;;;;;;8.20;6.90;;;3.80;99.90;;;;;;4994458;28;20462;-64
2020/12/07 07:02:43;;;;;;;7.70;6.90;;;3.70;99.90;;;;;;4994093;28;20434;-64
2020/12/07 07:05:11;;;;;;;7.20;6.47;;;3.70;99.90;;;;;;4994647;28;20450;-64
2020/12/07 07:07:38;;;;;;;7.83;6.97;;;3.80;99.90;;;;;;4994150;28;20446;-64
2020/12/07 07:10:07;;;;;;;10.10;7.70;;;3.80;99.90;;;;;;4994163;28;20449;-64
2020/12/07 07:12:33;;;;;;;9.37;7.47;;;3.90;99.90;;;;;;4993463;28;21004;-64
2020/12/07 07:15:00;;;;;;;9.63;7.63;;;4.00;99.90;;;;;;4993508;28;20978;-64
2020/12/07 07:17:28;;;;;;;11.20;7.50;;;3.90;99.90;;;;;;4993444;28;20481;-64
2020/12/07 07:19:55;;;;;;;9.17;7.20;;;4.00;99.90;;;;;;4993726;28;20446;-64
2020/12/07 07:22:22;;;;;;;10.90;7.23;;;4.00;99.90;;;;;;4993962;28;20468;-65
2020/12/07 07:25:03;;;;;;;12.50;8.50;;;4.10;99.90;;;;;;4994065;28;20500;-62
2020/12/07 07:30:16;;;;;;;8.93;7.10;;;4.10;99.90;;;;;;4997378;28;20504;-64
2020/12/07 07:32:44;;;;;;;8.70;7.20;;;4.20;99.90;;;;;;4997127;28;20985;-63
2020/12/07 07:35:11;;;;;;;9.90;7.80;;;4.30;99.90;;;;;;4997337;28;20453;-64
2020/12/07 07:37:39;;;;;;;10.03;7.73;;;4.30;99.90;;;;;;4997465;28;20500;-64
2020/12/07 07:40:07;;;;;;;9.90;7.20;;;4.40;99.90;;;;;;4997530;28;20453;-64
2020/12/07 07:42:37;;;;;;;8.40;7.60;;;4.50;99.90;;;;;;4997308;28;20473;-64
2020/12/07 07:45:04;;;;;;;7.80;6.97;;;4.50;99.90;;;;;;4997622;28;20454;-64
2020/12/07 07:47:35;;;;;;;8.90;7.90;;;4.60;99.90;;;;;;4997029;28;20544;-64
2020/12/07 08:13:01;;;;;;;11.00;8.00;;;4.70;99.90;;;;;;4996747;28;20461;-62
2020/12/07 08:18:18;;;;;;;7.50;6.70;;;4.70;99.90;;;;;;4996215;28;20880;-63
2020/12/07 08:20:55;;;;;;;12.07;8.10;;;4.80;99.90;;;;;;4997163;28;20474;-65
2020/12/07 08:23:27;;;;;;;9.40;8.03;;;4.80;99.90;;;;;;4996264;28;20430;-63
2020/12/07 08:25:54;;;;;;;9.30;8.10;;;4.80;99.90;;;;;;4995875;28;20931;-65
2020/12/07 08:28:22;;;;;;;11.07;7.53;;;5.00;99.90;;;;;;4996521;28;20457;-64
2020/12/07 08:31:12;;;;;;;9.27;8.03;;;5.10;99.90;;;;;;4995896;28;20473;-64
2020/12/07 08:33:40;;;;;;;8.67;7.77;;;5.20;99.90;;;;;;4996422;28;20445;-65
2020/12/07 08:36:09;;;;;;;8.13;7.37;;;5.40;99.90;;;;;;4995631;28;20524;-64
2020/12/07 08:38:38;;;;;;;8.33;7.40;;;5.50;99.90;;;;;;4994836;28;21017;-63
2020/12/07 08:41:10;;;;;;;7.83;7.03;;;5.60;99.90;;;;;;4996054;28;20470;-65
2020/12/07 08:43:37;;;;;;;8.80;8.00;;;5.60;99.90;;;;;;4995814;28;20977;-65
2020/12/07 08:46:04;;;;;;;6.77;6.17;;;5.70;99.90;;;;;;4996024;28;20496;-64
2020/12/07 08:48:31;;;;;;;9.20;7.07;;;5.70;99.90;;;;;;4995789;28;20983;-64
2020/12/07 08:50:57;;;;;;;8.23;7.43;;;5.70;99.90;;;;;;4995826;28;20473;-64
2020/12/07 08:53:24;;;;;;;7.40;6.77;;;5.70;99.90;;;;;;4995875;28;20450;-64
2020/12/07 08:55:50;;;;;;;8.57;7.17;;;5.70;99.90;;;;;;4996100;28;20458;-64
2020/12/07 08:58:16;;;;;;;7.60;6.80;;;5.70;99.90;;;;;;4995610;28;20892;-63
2020/12/07 09:00:44;;;;;;;7.23;6.53;;;5.70;99.90;;;;;;4994979;28;20997;-64
2020/12/07 09:03:10;;;;;;;8.33;7.53;;;5.80;99.90;;;;;;4995616;28;20438;-63
2020/12/07 09:05:38;;;;;;;7.93;7.23;;;5.80;99.90;;;;;;4995265;28;20458;-63
2020/12/07 09:08:05;;;;;;;7.27;6.67;;;5.80;99.90;;;;;;4995460;28;20469;-64
2020/12/07 09:10:32;;;;;;;7.23;6.60;;;5.90;99.90;;;;;;4995566;28;20489;-64
2020/12/07 09:12:58;;;;;;;7.07;6.57;;;5.90;99.90;;;;;;4996362;28;20457;-65
2020/12/07 09:15:25;;;;;;;7.57;6.87;;;5.80;99.90;;;;;;4995559;28;20872;-64
2020/12/07 09:17:51;;;;;;;6.73;6.03;;;5.70;99.90;;;;;;4995332;28;20478;-64
2020/12/07 09:20:17;;;;;;;6.93;6.33;;;5.80;99.90;;;;;;4995107;28;20450;-64
2020/12/07 09:22:43;;;;;;;6.97;6.27;;;5.80;99.90;;;;;;4994797;28;20946;-64
2020/12/07 09:25:09;;;;;;;6.50;5.90;;;5.80;99.90;;;;;;4995269;28;20864;-65
2020/12/07 09:27:36;;;;;;;7.33;5.63;;;5.90;99.90;;;;;;4995050;28;20454;-64
2020/12/07 09:30:03;;;;;;;9.87;6.00;;;6.00;99.90;;;;;;4995159;28;20450;-64
2020/12/07 09:32:29;;;;;;;6.53;5.93;;;6.10;99.90;;;;;;4994819;28;20481;-64
2020/12/07 09:34:55;;;;;;;5.80;5.27;;;6.40;99.90;;;;;;4995063;28;20454;-64
2020/12/07 09:37:21;;;;;;;6.83;4.90;;;6.60;99.90;;;;;;4995045;28;20493;-65
2020/12/07 09:39:48;;;;;;;6.03;5.43;;;6.90;99.90;;;;;;4994954;28;20442;-65
2020/12/07 09:42:14;;;;;;;7.57;6.87;;;7.20;99.90;;;;;;4994886;28;20474;-64
2020/12/07 09:44:41;;;;;;;5.67;5.17;;;7.60;99.90;;;;;;4994832;28;20442;-62
2020/12/07 09:47:07;;;;;;;5.50;5.03;;;7.90;99.90;;;;;;4994808;28;20836;-63
2020/12/07 09:49:33;;;;;;;6.83;4.87;;;8.20;99.90;;;;;;4994493;28;20462;-63
2020/12/07 09:51:59;;;;;;;4.57;4.17;;;8.30;99.90;;;;;;4994732;28;20474;-63
2020/12/07 09:54:25;;;;;;;5.20;4.80;;;8.00;99.90;;;;;;4994737;28;20450;-63
2020/12/07 09:56:52;;;;;;;5.13;4.73;;;7.80;99.90;;;;;;4994659;28;20455;-63
2020/12/07 09:59:18;;;;;;;4.20;3.83;;;7.90;99.90;;;;;;4994726;28;20450;-63
2020/12/07 10:01:45;;;;;;;4.53;4.23;;;8.00;99.90;;;;;;4994301;28;20488;-63
2020/12/07 10:04:11;;;;;;;5.07;4.67;;;8.00;99.90;;;;;;4994592;28;20476;-63
2020/12/07 10:06:37;;;;;;;4.27;3.97;;;8.10;99.90;;;;;;4994700;28;20450;-63
2020/12/07 10:09:03;;;;;;;4.60;4.20;;;8.10;99.90;;;;;;4994653;28;20450;-63
2020/12/07 10:11:30;;;;;;;4.10;3.80;;;8.00;99.90;;;;;;4994958;28;20476;-64
2020/12/07 10:13:56;;;;;;;4.50;4.10;;;7.90;99.90;;;;;;4994665;28;20961;-63
2020/12/07 10:16:22;;;;;;;5.00;4.47;;;8.00;99.90;;;;;;4995615;28;20438;-63
2020/12/07 10:18:49;;;;;;;4.40;4.00;;;8.10;99.90;;;;;;4994610;28;20482;-63
2020/12/07 10:21:15;;;;;;;4.47;4.17;;;8.10;99.90;;;;;;4994314;28;20473;-63
2020/12/07 10:23:41;;;;;;;4.73;4.33;;;8.50;99.90;;;;;;4994580;28;20454;-65
2020/12/07 10:26:07;;;;;;;4.50;4.10;;;9.90;99.90;;;;;;4994590;28;20454;-64
2020/12/07 10:28:34;;;;;;;3.93;3.70;;;11.40;99.90;;;;;;4994613;28;20438;-62
2020/12/07 10:31:00;;;;;;;3.50;3.30;;;11.70;99.90;;;;;;4994298;28;20470;-64
2020/12/07 10:33:26;;;;;;;4.10;3.80;;;13.10;99.90;;;;;;4994211;28;20810;-63
2020/12/07 10:35:53;;;;;;;3.80;3.50;;;13.90;99.90;;;;;;4994270;28;20456;-63
2020/12/07 10:38:20;;;;;;;4.70;4.40;;;14.40;99.90;;;;;;4994167;28;21012;-64
2020/12/07 10:40:46;;;;;;;4.90;4.10;;;14.80;99.90;;;;;;4994114;28;20840;-64
2020/12/07 10:43:13;;;;;;;4.70;4.30;;;14.40;99.90;;;;;;4994245;28;20453;-64
2020/12/07 10:45:39;;;;;;;4.60;4.30;;;13.60;99.90;;;;;;4994554;28;20453;-64
2020/12/07 10:48:05;;;;;;;5.60;5.20;;;12.60;99.90;;;;;;4993940;28;20969;-64
2020/12/07 10:50:31;;;;;;;5.63;5.13;;;11.80;99.90;;;;;;4994013;28;20821;-64
2020/12/07 10:52:58;;;;;;;6.20;5.70;;;11.00;99.90;;;;;;4994204;28;20453;-64
2020/12/07 10:55:24;;;;;;;5.23;4.80;;;10.40;99.90;;;;;;4994142;28;20449;-63
2020/12/07 10:57:51;;;;;;;5.87;5.20;;;9.80;99.90;;;;;;4993955;28;20527;-63
2020/12/07 11:00:17;;;;;;;4.33;4.10;;;9.30;99.90;;;;;;4993703;28;21042;-63
2020/12/07 11:02:43;;;;;;;6.20;5.60;;;8.80;99.90;;;;;;4997253;28;20442;-63
2020/12/07 11:05:09;;;;;;;5.30;4.90;;;8.20;99.90;;;;;;4998054;28;20457;-63
2020/12/07 11:07:36;;;;;;;5.57;4.20;;;8.00;99.90;;;;;;4997921;28;20468;-63
2020/12/07 11:10:04;;;;;;;5.17;4.77;;;7.80;99.90;;;;;;4997964;28;20458;-63
2020/12/07 11:12:30;;;;;;;4.90;4.50;;;7.60;99.90;;;;;;4997889;28;20866;-64
2020/12/07 11:14:56;;;;;;;6.17;5.67;;;7.50;99.90;;;;;;4997743;28;20460;-64
2020/12/07 11:17:23;;;;;;;5.30;4.40;;;7.50;99.90;;;;;;4997639;28;20477;-63
2020/12/07 11:19:49;;;;;;;6.83;4.70;;;7.20;99.90;;;;;;4997288;28;20946;-63
2020/12/07 11:22:15;;;;;;;6.50;4.60;;;7.10;99.90;;;;;;4997488;28;20510;-63
2020/12/07 11:24:41;;;;;;;4.90;4.50;;;7.00;99.90;;;;;;4997484;28;20540;-63
2020/12/07 11:27:08;;;;;;;6.83;5.50;;;6.80;99.90;;;;;;4997279;28;20950;-63
2020/12/07 11:29:35;;;;;;;7.20;4.73;;;6.70;99.90;;;;;;4997458;28;20453;-65
2020/12/07 11:32:01;;;;;;;4.57;4.20;;;6.80;99.90;;;;;;4997323;28;20473;-65
2020/12/07 11:34:27;;;;;;;5.30;4.90;;;6.50;99.90;;;;;;4997416;28;20850;-63
2020/12/07 11:36:53;;;;;;;4.70;4.00;;;6.50;99.90;;;;;;4997272;28;20457;-64
2020/12/07 11:42:31;;;;;;;4.40;4.00;;;6.30;99.90;;;;;;4961730;28;20468;-65
2020/12/07 11:44:58;;;;;;;5.40;5.00;;;6.20;99.90;;;;;;4998059;28;20480;-65
2020/12/07 11:47:24;;;;;;;5.60;5.20;;;6.20;99.90;;;;;;4997176;28;20457;-64
2020/12/07 11:49:50;;;;;;;5.10;4.67;;;6.10;99.90;;;;;;4996862;28;20910;-64
2020/12/07 11:52:17;;;;;;;5.43;5.03;;;6.10;99.90;;;;;;5001315;28;20493;-64
2020/12/07 11:54:43;;;;;;;6.10;5.60;;;6.20;99.90;;;;;;5001483;28;20454;-64
2020/12/07 11:57:09;;;;;;;4.60;4.30;;;6.20;99.90;;;;;;5001615;28;20461;-63
2020/12/07 11:59:36;;;;;;;4.80;4.40;;;6.10;99.90;;;;;;5000750;28;20453;-64
2020/12/07 12:02:05;;;;;;;4.93;4.20;;;6.10;99.90;;;;;;4998020;28;20485;-64
2020/12/07 12:04:31;;;;;;;4.70;4.40;;;6.10;99.90;;;;;;4997169;28;20919;-64
2020/12/07 12:06:57;;;;;;;4.50;4.10;;;6.10;99.90;;;;;;4997495;28;20477;-63
2020/12/07 12:09:23;;;;;;;4.80;4.50;;;6.10;99.90;;;;;;4997297;28;20456;-63
2020/12/07 12:11:49;;;;;;;5.83;4.50;;;6.10;99.90;;;;;;4996367;28;20872;-65
2020/12/07 12:14:15;;;;;;;3.90;3.60;;;6.20;99.90;;;;;;4996634;28;20454;-64
2020/12/07 12:16:42;;;;;;;4.30;3.90;;;6.20;99.90;;;;;;4996771;28;20453;-63
2020/12/07 12:19:10;;;;;;;4.10;3.80;;;6.10;99.90;;;;;;4996673;28;20477;-65
2020/12/07 12:21:38;;;;;;;4.43;4.03;;;6.10;99.90;;;;;;4996702;28;20485;-64
2020/12/07 12:24:05;;;;;;;3.83;3.53;;;6.10;99.90;;;;;;4996434;28;20450;-65
2020/12/07 12:26:32;;;;;;;4.50;4.10;;;6.10;99.90;;;;;;4996499;28;20454;-64
2020/12/07 12:28:59;;;;;;;5.40;4.47;;;6.00;99.90;;;;;;4996470;28;20446;-64
2020/12/07 12:31:25;;;;;;;5.20;4.80;;;6.00;99.90;;;;;;4996333;28;20481;-65
2020/12/07 12:33:55;;;;;;;4.40;4.00;;;5.90;99.90;;;;;;4996445;28;20458;-64
2020/12/07 12:36:22;;;;;;;8.00;4.23;;;5.90;99.90;;;;;;4996333;28;20490;-64
2020/12/07 12:38:49;;;;;;;4.90;3.73;;;6.00;99.90;;;;;;4996472;28;20484;-64
2020/12/07 12:41:16;;;;;;;4.10;3.80;;;6.10;99.90;;;;;;4998764;28;20474;-63
2020/12/07 12:43:42;;;;;;;4.37;4.07;;;6.10;99.90;;;;;;4999541;28;20450;-63
2020/12/07 12:46:08;;;;;;;3.90;3.70;;;6.20;99.90;;;;;;4999726;28;20461;-63
2020/12/07 12:48:36;;;;;;;4.50;4.20;;;6.20;99.90;;;;;;5001300;28;20450;-63
2020/12/07 12:51:03;;;;;;;4.10;3.80;;;6.20;99.90;;;;;;4998560;28;20470;-63
2020/12/07 12:53:30;;;;;;;7.23;4.40;;;6.20;99.90;;;;;;5001496;28;20545;-64
2020/12/07 12:55:57;;;;;;;4.20;3.90;;;6.20;99.90;;;;;;5006480;28;20484;-64
2020/12/07 12:58:23;;;;;;;4.23;3.93;;;6.20;99.90;;;;;;4995819;28;20474;-64
2020/12/07 13:00:50;;;;;;;4.93;4.53;;;6.10;99.90;;;;;;4996201;28;20993;-64
2020/12/07 13:03:16;;;;;;;5.00;4.50;;;6.10;99.90;;;;;;4996061;28;20891;-63
2020/12/07 13:05:42;;;;;;;3.80;3.60;;;6.10;99.90;;;;;;4995964;28;20456;-63
2020/12/07 13:08:09;;;;;;;3.90;3.70;;;6.10;99.90;;;;;;4995472;28;20833;-63
2020/12/07 13:10:36;;;;;;;3.80;3.60;;;6.10;99.90;;;;;;4995979;28;20473;-64
2020/12/07 13:13:02;;;;;;;4.30;4.00;;;6.10;99.90;;;;;;4995680;28;20476;-64
2020/12/07 13:15:29;;;;;;;4.10;3.73;;;6.10;99.90;;;;;;4995568;28;20457;-64
2020/12/07 13:18:07;;;;;;;4.40;4.10;;;6.20;99.90;;;;;;4996397;28;20544;-63
2020/12/07 13:20:36;;;;;;;3.80;3.57;;;6.20;99.90;;;;;;4995587;28;20442;-63
2020/12/07 13:23:08;;;;;;;3.70;3.50;;;6.30;99.90;;;;;;4995989;28;20457;-62
2020/12/07 13:25:43;;;;;;;4.67;4.37;;;6.30;99.90;;;;;;4995199;28;20446;-63
2020/12/07 13:28:13;;;;;;;4.03;3.73;;;6.30;99.90;;;;;;4995874;28;20879;-63
2020/12/07 13:30:39;;;;;;;4.07;3.83;;;6.30;99.90;;;;;;4996006;28;20476;-63
2020/12/07 13:33:05;;;;;;;3.93;3.63;;;6.20;99.90;;;;;;4996257;28;20460;-64
2020/12/07 13:35:31;;;;;;;4.30;3.90;;;6.30;99.90;;;;;;4995826;28;20814;-64
2020/12/07 13:37:58;;;;;;;4.13;3.73;;;6.50;99.90;;;;;;4999210;28;20548;-63
2020/12/07 13:40:24;;;;;;;5.90;4.07;;;6.40;99.90;;;;;;4995524;28;20824;-65
2020/12/07 13:42:51;;;;;;;4.70;4.30;;;6.50;99.90;;;;;;4995766;28;20456;-63
2020/12/07 13:45:17;;;;;;;3.53;3.33;;;6.50;99.90;;;;;;4995801;28;20456;-64
2020/12/07 13:47:44;;;;;;;4.43;4.10;;;6.50;99.90;;;;;;4995567;28;20453;-63
2020/12/07 13:50:10;;;;;;;4.03;3.63;;;6.50;99.90;;;;;;4995521;28;20919;-63
2020/12/07 13:52:36;;;;;;;3.93;3.63;;;6.50;99.90;;;;;;4995716;28;20481;-62
2020/12/07 13:55:02;;;;;;;3.80;3.60;;;6.50;99.90;;;;;;4996207;28;20453;-63
2020/12/07 13:57:28;;;;;;;3.20;3.00;;;6.50;99.90;;;;;;4996349;28;20454;-64
2020/12/07 13:59:55;;;;;;;3.50;3.20;;;6.50;99.90;;;;;;4996511;28;20450;-63
2020/12/07 14:02:21;;;;;;;4.00;2.97;;;6.50;99.90;;;;;;4995197;28;20481;-64
2020/12/07 14:04:52;;;;;;;3.43;3.23;;;6.60;99.90;;;;;;4995754;28;20461;-64
2020/12/07 14:07:18;;;;;;;3.30;3.00;;;6.80;99.90;;;;;;4997336;28;20802;-64
2020/12/07 14:09:45;;;;;;;3.30;3.00;;;6.90;99.90;;;;;;4997156;28;20450;-64
2020/12/07 14:12:11;;;;;;;3.33;3.13;;;6.90;99.90;;;;;;5001890;28;20474;-62
2020/12/07 14:14:37;;;;;;;3.63;3.33;;;7.00;99.90;;;;;;4999607;28;20460;-62
2020/12/07 14:17:07;;;;;;;3.87;3.60;;;7.10;99.90;;;;;;4999709;28;20478;-62
2020/12/07 14:19:38;;;;;;;3.30;3.10;;;7.20;99.90;;;;;;5000001;28;20489;-63
2020/12/07 14:25:12;;;;;;;3.80;3.10;;;7.40;99.90;;;;;;4995333;28;20429;-63
2020/12/07 14:39:08;;;;;;;3.73;3.43;;;7.20;99.90;;;;;;5004257;28;20457;-64
2020/12/07 14:41:34;;;;;;;3.17;3.07;;;7.10;99.90;;;;;;4999017;28;20477;-65
2020/12/07 14:44:00;;;;;;;3.50;3.20;;;6.90;99.90;;;;;;4998518;28;20544;-64
2020/12/07 14:46:29;;;;;;;5.80;3.10;;;6.80;99.90;;;;;;4998386;28;20456;-64
2020/12/07 14:48:56;;;;;;;3.90;3.60;;;6.60;99.90;;;;;;4998658;28;20449;-64
2020/12/07 14:51:32;;;;;;;3.40;3.20;;;6.50;99.90;;;;;;4998502;28;20500;-63
2020/12/07 14:54:02;;;;;;;3.57;3.37;;;6.40;99.90;;;;;;4998957;28;20528;-64
2020/12/07 14:56:38;;;;;;;3.50;3.30;;;6.20;99.90;;;;;;4998608;28;20930;-64
2020/12/07 15:02:11;;;;;;;4.27;3.87;;;5.90;99.90;;;;;;4998128;28;20844;-64
2020/12/07 15:07:55;;;;;;;3.43;3.23;;;5.70;99.90;;;;;;4998099;28;20424;-63
2020/12/07 15:15:44;;;;;;;3.70;3.50;;;5.60;99.90;;;;;;4997920;28;20418;-64
2020/12/07 15:18:11;;;;;;;3.37;3.17;;;5.60;99.90;;;;;;4997218;28;20997;-64
2020/12/07 15:20:38;;;;;;;3.63;3.43;;;5.60;99.90;;;;;;4997503;28;20497;-64
2020/12/07 15:23:04;;;;;;;3.70;3.40;;;5.60;99.90;;;;;;4997885;28;20450;-64
2020/12/07 15:25:30;;;;;;;3.20;3.00;;;5.50;99.90;;;;;;4997513;28;20476;-64
2020/12/07 15:27:56;;;;;;;3.00;2.80;;;5.40;99.90;;;;;;4997789;28;20446;-62
2020/12/07 15:30:22;;;;;;;3.83;3.53;;;5.40;99.90;;;;;;4997373;28;20458;-63
2020/12/07 15:32:49;;;;;;;3.40;3.20;;;5.30;99.90;;;;;;4997565;28;20902;-63
2020/12/07 15:35:15;;;;;;;3.50;3.27;;;5.20;99.90;;;;;;4997981;28;20461;-62
2020/12/07 15:37:42;;;;;;;3.37;3.17;;;5.10;99.90;;;;;;4997147;28;20817;-63
2020/12/07 15:40:08;;;;;;;3.27;3.10;;;5.10;99.90;;;;;;4997437;28;20465;-62
2020/12/07 15:42:35;;;;;;;2.90;2.60;;;5.10;99.90;;;;;;4997325;28;20473;-62
2020/12/07 15:45:02;;;;;;;2.90;2.77;;;5.00;99.90;;;;;;4997312;28;20434;-65
2020/12/07 15:47:28;;;;;;;3.00;2.80;;;5.00;99.90;;;;;;4996683;28;20453;-63
2020/12/07 15:49:54;;;;;;;3.63;3.40;;;5.10;99.90;;;;;;4997616;28;20481;-62
2020/12/07 15:52:26;;;;;;;3.50;3.30;;;5.10;99.90;;;;;;4997278;28;20481;-62
2020/12/07 15:54:53;;;;;;;4.17;3.77;;;5.10;99.90;;;;;;4997408;28;20446;-64
2020/12/07 15:57:19;;;;;;;4.30;3.90;;;5.10;99.90;;;;;;4997338;28;20450;-65
2020/12/07 15:59:45;;;;;;;5.07;4.07;;;5.10;99.90;;;;;;4996941;28;20473;-64
2020/12/07 16:02:11;;;;;;;4.40;4.00;;;5.10;99.90;;;;;;4996701;28;20477;-63
2020/12/07 16:04:38;;;;;;;5.37;4.33;;;5.10;99.90;;;;;;4997645;28;20460;-62
2020/12/07 16:07:04;;;;;;;4.70;4.30;;;5.20;99.90;;;;;;4997061;28;20512;-63
2020/12/07 16:09:30;;;;;;;5.00;4.60;;;5.20;99.90;;;;;;4996654;28;20454;-64
2020/12/07 16:11:57;;;;;;;5.63;5.13;;;5.10;99.90;;;;;;4996438;28;20477;-62
2020/12/07 16:14:23;;;;;;;6.57;5.03;;;5.10;99.90;;;;;;4996530;28;20965;-62
2020/12/07 16:16:50;;;;;;;5.10;4.17;;;5.10;99.90;;;;;;4997537;28;20449;-62
2020/12/07 16:19:16;;;;;;;5.90;5.30;;;5.00;99.90;;;;;;4999837;28;20481;-63
2020/12/07 16:21:42;;;;;;;5.40;4.90;;;5.10;99.90;;;;;;4997169;28;20473;-64
2020/12/07 16:24:09;;;;;;;6.70;5.73;;;5.10;99.90;;;;;;4996446;28;20792;-64
2020/12/07 16:26:35;;;;;;;6.23;5.00;;;5.10;99.90;;;;;;4996470;28;20792;-63
2020/12/07 16:29:03;;;;;;;5.30;4.90;;;5.10;99.90;;;;;;4996189;28;20844;-63
2020/12/07 16:31:30;;;;;;;6.07;5.47;;;5.10;99.90;;;;;;4996509;28;20478;-63
2020/12/07 16:33:57;;;;;;;6.90;6.20;;;5.00;99.90;;;;;;4996556;28;20456;-63
2020/12/07 16:36:24;;;;;;;15.13;11.30;;;5.00;99.90;;;;;;4996240;28;20454;-64
2020/12/07 16:38:51;;;;;;;19.80;14.73;;;4.90;99.90;;;;;;4995888;28;20518;-64
2020/12/07 16:41:17;;;;;;;12.77;8.83;;;4.90;99.90;;;;;;4995896;28;20473;-63
2020/12/07 16:43:43;;;;;;;8.27;7.37;;;4.90;99.90;;;;;;4995806;28;20457;-63
2020/12/07 16:46:10;;;;;;;6.30;5.20;;;4.90;99.90;;;;;;4995948;28;20820;-63
2020/12/07 16:48:36;;;;;;;6.00;5.37;;;4.90;99.90;;;;;;4995557;28;20454;-69
2020/12/07 16:51:03;;;;;;;7.70;5.20;;;4.90;99.90;;;;;;4995799;28;20469;-64
2020/12/07 16:53:29;;;;;;;7.30;5.93;;;4.90;99.90;;;;;;4995644;28;20457;-62
2020/12/07 16:55:55;;;;;;;7.97;5.73;;;4.80;99.90;;;;;;4995819;28;20454;-62
2020/12/07 16:58:21;;;;;;;6.97;6.30;;;4.80;99.90;;;;;;4995283;28;20473;-62
2020/12/07 17:00:47;;;;;;;6.83;5.30;;;4.70;99.90;;;;;;4994964;28;20488;-62
2020/12/07 17:03:14;;;;;;;7.03;6.13;;;4.70;99.90;;;;;;4995723;28;20457;-62
2020/12/07 17:05:41;;;;;;;10.57;5.20;;;4.70;99.90;;;;;;4996345;28;20460;-62
2020/12/07 17:08:07;;;;;;;5.60;5.03;;;4.70;99.90;;;;;;4995988;28;20453;-62
2020/12/07 17:10:33;;;;;;;6.53;5.47;;;4.60;99.90;;;;;;4995180;28;20449;-62
2020/12/07 17:12:59;;;;;;;6.63;5.93;;;4.60;99.90;;;;;;4995740;28;20488;-62
2020/12/07 17:15:26;;;;;;;5.73;5.23;;;4.90;99.90;;;;;;4995672;28;20449;-63
2020/12/07 17:17:52;;;;;;;7.03;5.37;;;5.10;99.90;;;;;;4995105;28;20818;-64
2020/12/07 17:20:19;;;;;;;7.10;6.40;;;5.20;99.90;;;;;;4995282;28;20453;-62
2020/12/07 17:22:45;;;;;;;7.33;6.60;;;5.00;99.90;;;;;;4995220;28;20932;-62
2020/12/07 17:25:11;;;;;;;6.77;6.10;;;4.80;99.90;;;;;;4995449;28;20450;-63
2020/12/07 17:27:37;;;;;;;7.90;7.10;;;4.60;99.90;;;;;;4995457;28;20812;-63
2020/12/07 17:30:05;;;;;;;8.80;6.60;;;4.50;99.90;;;;;;4995260;28;20453;-63
2020/12/07 17:32:31;;;;;;;7.83;7.13;;;4.50;99.90;;;;;;4995207;28;20986;-63
2020/12/07 17:34:57;;;;;;;7.83;7.00;;;4.50;99.90;;;;;;4995892;28;20446;-63
2020/12/07 17:37:25;;;;;;;7.40;6.70;;;4.40;99.90;;;;;;4995255;28;20943;-62
2020/12/07 17:39:51;;;;;;;8.03;7.23;;;4.30;99.90;;;;;;4995484;28;20564;-63
2020/12/07 17:42:18;;;;;;;8.17;7.37;;;4.30;99.90;;;;;;4994923;28;21025;-63
2020/12/07 17:44:44;;;;;;;8.33;7.13;;;4.20;99.90;;;;;;4995474;28;20500;-62
2020/12/07 17:47:10;;;;;;;8.50;6.93;;;4.30;99.90;;;;;;4995372;28;20458;-62
2020/12/07 17:49:37;;;;;;;9.27;7.77;;;4.30;99.90;;;;;;4995131;28;20442;-63
2020/12/07 17:52:03;;;;;;;8.80;8.00;;;4.20;99.90;;;;;;4995165;28;20476;-62
2020/12/07 17:54:31;;;;;;;9.37;8.30;;;4.10;99.90;;;;;;4995271;28;20888;-63
2020/12/07 17:56:57;;;;;;;8.63;7.37;;;4.10;99.90;;;;;;4995016;28;20848;-64
2020/12/07 17:59:23;;;;;;;9.40;8.47;;;4.10;99.90;;;;;;4995048;28;20481;-64
2020/12/07 18:01:51;;;;;;;11.97;8.70;;;4.10;99.90;;;;;;4994973;28;20481;-62
2020/12/07 18:04:17;;;;;;;8.60;7.70;;;4.00;99.90;;;;;;4995269;28;20450;-64
2020/12/07 18:06:44;;;;;;;10.30;8.37;;;4.10;99.90;;;;;;4995434;28;20814;-61
2020/12/07 18:09:10;;;;;;;10.30;9.30;;;4.10;99.90;;;;;;4995025;28;20450;-63
2020/12/07 18:11:37;;;;;;;15.47;9.90;;;4.00;99.90;;;;;;4995353;28;20473;-64
2020/12/07 18:14:03;;;;;;;13.43;10.40;;;4.00;99.90;;;;;;4994969;28;20453;-65
2020/12/07 18:16:32;;;;;;;19.70;12.30;;;4.10;99.90;;;;;;4994382;28;20958;-63
2020/12/07 18:18:58;;;;;;;17.90;12.43;;;4.10;99.90;;;;;;4994568;28;20481;-64
2020/12/07 18:21:25;;;;;;;19.90;13.77;;;4.20;99.90;;;;;;4995002;28;20488;-64
2020/12/07 18:23:52;;;;;;;19.67;13.77;;;4.20;99.90;;;;;;4994625;28;20946;-65
2020/12/07 18:26:20;;;;;;;18.93;12.37;;;4.20;99.90;;;;;;4994730;28;20449;-63
2020/12/07 18:28:47;;;;;;;17.10;12.77;;;4.20;99.90;;;;;;4994673;28;20430;-64
2020/12/07 18:31:13;;;;;;;18.03;12.23;;;4.20;99.90;;;;;;4994647;28;20479;-63
2020/12/07 18:33:40;;;;;;;17.07;11.77;;;4.20;99.90;;;;;;4995775;28;20453;-64
2020/12/07 18:36:07;;;;;;;16.63;12.23;;;4.20;99.90;;;;;;4994444;28;20942;-64
2020/12/07 18:38:35;;;;;;;16.90;12.27;;;4.20;99.90;;;;;;4995043;28;20549;-64
2020/12/07 18:41:01;;;;;;;17.37;12.43;;;4.20;99.90;;;;;;4994956;28;20469;-64
2020/12/07 18:43:27;;;;;;;20.70;13.30;;;4.20;99.90;;;;;;4994726;28;20453;-64
2020/12/07 18:45:54;;;;;;;19.63;13.33;;;4.20;99.90;;;;;;4994647;28;20453;-63
2020/12/07 18:48:21;;;;;;;18.90;12.23;;;4.20;99.90;;;;;;4994651;28;20446;-65
2020/12/07 18:50:47;;;;;;;21.37;13.67;;;4.20;99.90;;;;;;4994943;28;20996;-63
2020/12/07 18:53:13;;;;;;;19.00;13.77;;;4.20;99.90;;;;;;4994801;28;20454;-63